Station Historical Data
Daily Summary for September 8, 2017 Units:  English    Metric   Both
« Previous Day
Next Day »
Daily Weekly Monthly Yearly Custom
  High: Low: Average:
Temperature: 62.3 °F 52.2 °F 56.7 °F
Dew Point: 54.1 °F 48.0 °F 50.6 °F
Humidity: 91% 68% 80%
Wind Speed: 8.0mph 0.0mph 1.4mph
Wind Gust: 12.0mph - -
Wind- - SW
Pressure: 30.29 in 29.96 in -
Precipitation: 0.00 in    
Historical Graphs
 
 
Tabular Data for September 8, 2017
Time Temperature Dew Point Pressure Wind Wind Speed Wind Gust Humidity Rainfall Rate (Hourly)
00:04 55.5 °F 51.4 °F 29.97 in SW 2.0 mph 7.0 mph 86% 0.00 in
00:09 55.2 °F 51.1 °F 29.97 in SW 3.0 mph 9.0 mph 86% 0.00 in
00:14 55.0 °F 50.9 °F 29.97 in SSW 4.0 mph 11.0 mph 86% 0.01 in
00:19 55.0 °F 50.9 °F 29.96 in SW 4.0 mph 8.0 mph 86% 0.01 in
00:24 54.8 °F 50.4 °F 29.97 in SSW 3.0 mph 12.0 mph 85% 0.01 in
00:29 54.8 °F 50.1 °F 29.97 in SW 5.0 mph 12.0 mph 84% 0.01 in
00:34 54.8 °F 49.7 °F 29.97 in WSW 3.0 mph 8.0 mph 83% 0.01 in
00:39 54.8 °F 49.7 °F 29.97 in Calm   4.0 mph 83% 0.01 in
00:44 54.7 °F 49.6 °F 29.97 in WSW 1.0 mph 4.0 mph 83% 0.01 in
00:49 54.6 °F 49.5 °F 29.97 in NNE 1.0 mph 5.0 mph 83% 0.01 in
00:54 54.6 °F 49.9 °F 29.97 in Calm   2.0 mph 84% 0.01 in
00:59 54.6 °F 49.9 °F 29.97 in Calm   2.0 mph 84% 0.01 in
01:04 54.6 °F 49.9 °F 29.97 in Calm   2.0 mph 84% 0.01 in
01:09 54.5 °F 49.8 °F 29.98 in NW 1.0 mph 4.0 mph 84% 0.01 in
01:14 54.5 °F 49.8 °F 29.97 in WNW 1.0 mph 4.0 mph 84% 0.00 in
01:19 54.5 °F 49.8 °F 29.98 in WSW 1.0 mph 3.0 mph 84% 0.00 in
01:24 54.4 °F 49.7 °F 29.97 in Calm   3.0 mph 84% 0.00 in
01:29 54.4 °F 49.7 °F 29.98 in Calm   2.0 mph 84% 0.00 in
01:34 54.2 °F 49.5 °F 29.98 in SW 1.0 mph 5.0 mph 84% 0.00 in
01:39 54.1 °F 49.4 °F 29.97 in SW 3.0 mph 6.0 mph 84% 0.00 in
01:44 53.9 °F 49.5 °F 29.97 in South 2.0 mph 6.0 mph 85% 0.00 in
01:49 53.8 °F 49.4 °F 29.98 in SSW 2.0 mph 9.0 mph 85% 0.00 in
01:54 53.6 °F 49.2 °F 29.98 in SW 3.0 mph 9.0 mph 85% 0.00 in
01:59 53.4 °F 49.3 °F 29.98 in South 2.0 mph 6.0 mph 86% 0.00 in
02:04 53.3 °F 49.5 °F 29.98 in SSW 2.0 mph 6.0 mph 87% 0.00 in
02:09 53.3 °F 49.5 °F 29.98 in SSW 2.0 mph 6.0 mph 87% 0.00 in
02:14 53.2 °F 49.4 °F 29.98 in SSW 1.0 mph 6.0 mph 87% 0.00 in
02:19 53.0 °F 49.5 °F 29.97 in South 1.0 mph 3.0 mph 88% 0.00 in
02:24 52.9 °F 49.4 °F 29.98 in South 1.0 mph 3.0 mph 88% 0.00 in
02:29 52.9 °F 49.4 °F 29.98 in SSW 1.0 mph 5.0 mph 88% 0.00 in
02:34 52.9 °F 49.7 °F 29.98 in Calm   4.0 mph 89% 0.00 in
02:39 53.0 °F 49.8 °F 29.98 in SSW 2.0 mph 5.0 mph 89% 0.00 in
02:44 53.1 °F 49.9 °F 29.99 in SSW 1.0 mph 8.0 mph 89% 0.01 in
02:49 53.2 °F 50.0 °F 29.98 in SSW 3.0 mph 7.0 mph 89% 0.01 in
02:54 53.4 °F 50.2 °F 29.99 in SSW 3.0 mph 7.0 mph 89% 0.01 in
02:59 53.4 °F 50.2 °F 29.98 in SSW 3.0 mph 6.0 mph 89% 0.01 in
03:04 53.5 °F 50.3 °F 29.99 in SSW 2.0 mph 6.0 mph 89% 0.01 in
03:09 53.4 °F 50.2 °F 29.99 in SSW 1.0 mph 5.0 mph 89% 0.02 in
03:14 53.2 °F 50.0 °F 29.99 in SSW 1.0 mph 5.0 mph 89% 0.02 in
03:19 53.0 °F 49.8 °F 29.99 in Calm   5.0 mph 89% 0.02 in
03:24 53.0 °F 49.8 °F 29.99 in SSW 2.0 mph 3.0 mph 89% 0.03 in
03:29 52.9 °F 49.7 °F 29.99 in SSW 2.0 mph 4.0 mph 89% 0.03 in
03:34 52.9 °F 49.7 °F 29.99 in SSW 2.0 mph 5.0 mph 89% 0.03 in
03:39 53.0 °F 49.8 °F 29.99 in SSW 2.0 mph 5.0 mph 89% 0.03 in
03:44 52.8 °F 49.9 °F 29.99 in South 2.0 mph 7.0 mph 90% 0.02 in
03:49 52.8 °F 49.9 °F 30.00 in SSW 4.0 mph 6.0 mph 90% 0.03 in
03:54 52.8 °F 49.9 °F 30.00 in SW 1.0 mph 4.0 mph 90% 0.04 in
03:59 53.0 °F 50.1 °F 30.00 in Calm   4.0 mph 90% 0.04 in
04:04 53.0 °F 50.1 °F 30.00 in Calm   4.0 mph 90% 0.04 in
04:09 53.0 °F 50.1 °F 30.00 in Calm   3.0 mph 90% 0.03 in
04:14 52.9 °F 50.0 °F 30.00 in Calm   3.0 mph 90% 0.03 in
04:19 52.8 °F 49.9 °F 30.00 in South 1.0 mph 3.0 mph 90% 0.03 in
04:24 52.8 °F 49.9 °F 30.00 in Calm   4.0 mph 90% 0.02 in
04:29 52.8 °F 49.9 °F 30.00 in Calm     90% 0.02 in
04:34 52.8 °F 49.9 °F 30.01 in Calm     90% 0.02 in
04:39 52.9 °F 50.3 °F 30.01 in Calm     91% 0.02 in
04:44 53.0 °F 50.4 °F 30.01 in Calm     91% 0.02 in
04:49 53.1 °F 50.5 °F 30.01 in Calm     91% 0.01 in
04:54 53.1 °F 50.5 °F 30.01 in Calm     91% 0.00 in
04:59 53.1 °F 50.5 °F 30.01 in SSW 1.0 mph 4.0 mph 91% 0.00 in
05:04 53.1 °F 50.5 °F 30.01 in WNW 3.0 mph 4.0 mph 91% 0.00 in
05:09 53.0 °F 50.1 °F 30.01 in WSW 1.0 mph 5.0 mph 90% 0.00 in
05:14 53.1 °F 50.2 °F 30.01 in WSW 5.0 mph 5.0 mph 90% 0.00 in
05:19 53.0 °F 50.1 °F 30.02 in West 4.0 mph 7.0 mph 90% 0.00 in
05:24 53.1 °F 50.2 °F 30.02 in SW 1.0 mph 4.0 mph 90% 0.00 in
05:29 53.2 °F 50.3 °F 30.03 in SSW 3.0 mph 5.0 mph 90% 0.00 in
05:34 53.1 °F 49.9 °F 30.03 in SW 1.0 mph 4.0 mph 89% 0.00 in
05:39 52.9 °F 49.7 °F 30.03 in SW 1.0 mph 4.0 mph 89% 0.00 in
05:44 52.6 °F 49.4 °F 30.03 in SW 1.0 mph 5.0 mph 89% 0.00 in
05:49 52.4 °F 49.3 °F 30.03 in SW 1.0 mph 5.0 mph 89% 0.00 in
05:54 52.3 °F 49.2 °F 30.03 in Calm   5.0 mph 89% 0.00 in
05:59 52.2 °F 49.1 °F 30.03 in Calm     89% 0.00 in
06:04 52.2 °F 49.1 °F 30.04 in Calm     89% 0.00 in
06:09 52.2 °F 49.1 °F 30.04 in Calm     89% 0.00 in
06:14 52.2 °F 49.1 °F 30.04 in Calm     89% 0.01 in
06:19 52.2 °F 49.1 °F 30.04 in SSE 2.0 mph 8.0 mph 89% 0.02 in
06:24 52.2 °F 49.1 °F 30.04 in Calm   4.0 mph 89% 0.02 in
06:29 52.2 °F 49.4 °F 30.04 in South 1.0 mph 3.0 mph 90% 0.02 in
06:34 52.3 °F 49.5 °F 30.04 in South 1.0 mph 2.0 mph 90% 0.02 in
06:39 52.3 °F 49.2 °F 30.04 in Calm   2.0 mph 89% 0.03 in
06:44 52.3 °F 49.5 °F 30.05 in Calm   2.0 mph 90% 0.03 in
06:49 52.4 °F 49.6 °F 30.05 in Calm     90% 0.04 in
06:54 52.4 °F 49.6 °F 30.05 in Calm     90% 0.04 in
06:59 52.4 °F 49.6 °F 30.06 in Calm     90% 0.04 in
07:04 52.5 °F 49.7 °F 30.06 in Calm     90% 0.05 in
07:09 52.3 °F 49.5 °F 30.06 in Calm     90% 0.06 in
07:14 52.3 °F 49.5 °F 30.06 in Calm     90% 0.06 in
07:19 52.4 °F 49.6 °F 30.06 in Calm     90% 0.05 in
07:24 52.4 °F 49.6 °F 30.06 in Calm     90% 0.06 in
07:29 52.5 °F 49.7 °F 30.06 in Calm     90% 0.06 in
07:34 52.6 °F 50.0 °F 30.06 in Calm     91% 0.06 in
07:39 52.7 °F 50.1 °F 30.06 in Calm     91% 0.05 in
07:44 52.8 °F 50.2 °F 30.06 in Calm     91% 0.05 in
07:49 52.8 °F 50.2 °F 30.06 in SSE 1.0 mph 3.0 mph 91% 0.04 in
07:54 52.7 °F 50.1 °F 30.07 in SSE 1.0 mph 3.0 mph 91% 0.04 in
07:59 52.8 °F 50.2 °F 30.07 in Calm   3.0 mph 91% 0.04 in
08:04 53.0 °F 50.4 °F 30.07 in SSE 2.0 mph 4.0 mph 91% 0.03 in
08:09 53.2 °F 50.6 °F 30.07 in Calm   3.0 mph 91% 0.02 in
08:14 53.3 °F 50.4 °F 30.07 in Calm   4.0 mph 90% 0.01 in
08:19 53.4 °F 50.5 °F 30.08 in SSW 1.0 mph 4.0 mph 90% 0.01 in
08:24 53.7 °F 50.8 °F 30.08 in SSW 1.0 mph 4.0 mph 90% 0.00 in
08:29 53.6 °F 50.7 °F 30.08 in South 1.0 mph 3.0 mph 90% 0.00 in
08:34 53.7 °F 50.8 °F 30.08 in South 1.0 mph 4.0 mph 90% 0.00 in
08:39 53.7 °F 50.5 °F 30.08 in SSW 2.0 mph 4.0 mph 89% 0.00 in
08:44 54.1 °F 51.2 °F 30.08 in Calm   4.0 mph 90% 0.00 in
08:49 54.6 °F 51.4 °F 30.08 in SSW 1.0 mph 4.0 mph 89% 0.00 in
08:54 54.8 °F 51.3 °F 30.08 in Calm   4.0 mph 88% 0.00 in
08:59 55.7 °F 52.2 °F 30.08 in SW 3.0 mph 3.0 mph 88% 0.00 in
09:04 56.2 °F 52.4 °F 30.08 in SW 2.0 mph 4.0 mph 87% 0.00 in
09:09 56.3 °F 51.5 °F 30.08 in SW 3.0 mph 4.0 mph 84% 0.00 in
09:14 56.7 °F 51.6 °F 30.09 in SW 1.0 mph 5.0 mph 83% 0.00 in
09:19 57.2 °F 52.1 °F 30.09 in SSW 2.0 mph 5.0 mph 83% 0.00 in
09:24 57.5 °F 51.7 °F 30.09 in SW 1.0 mph 4.0 mph 81% 0.00 in
09:29 57.9 °F 52.1 °F 30.09 in SW 2.0 mph 4.0 mph 81% 0.00 in
09:34 58.3 °F 52.2 °F 30.10 in SW 1.0 mph 5.0 mph 80% 0.00 in
09:39 58.4 °F 52.3 °F 30.10 in SW 1.0 mph 5.0 mph 80% 0.00 in
09:44 58.8 °F 52.3 °F 30.10 in SW 1.0 mph 3.0 mph 79% 0.00 in
09:49 59.9 °F 52.0 °F 30.10 in South 1.0 mph 3.0 mph 75% 0.00 in
09:54 59.7 °F 52.5 °F 30.10 in SW 1.0 mph 3.0 mph 77% 0.00 in
09:59 59.6 °F 52.0 °F 30.10 in WNW 1.0 mph 3.0 mph 76% 0.00 in
10:04 59.3 °F 51.7 °F 30.10 in Calm   4.0 mph 76% 0.00 in
10:09 59.1 °F 51.5 °F 30.10 in NNW 2.0 mph 5.0 mph 76% 0.00 in
10:14 59.0 °F 51.8 °F 30.10 in NW 1.0 mph 4.0 mph 77% 0.00 in
10:19 59.0 °F 51.8 °F 30.11 in NNW 2.0 mph 3.0 mph 77% 0.00 in
10:24 58.9 °F 52.1 °F 30.11 in NW 2.0 mph 4.0 mph 78% 0.00 in
10:29 59.2 °F 52.0 °F 30.11 in NW 2.0 mph 4.0 mph 77% 0.00 in
10:34 59.6 °F 52.0 °F 30.11 in WNW 2.0 mph 6.0 mph 76% 0.00 in
10:39 59.8 °F 52.2 °F 30.11 in WNW 4.0 mph 7.0 mph 76% 0.00 in
10:44 59.7 °F 52.1 °F 30.11 in WNW 5.0 mph 6.0 mph 76% 0.00 in
10:49 59.5 °F 51.6 °F 30.11 in WNW 3.0 mph 6.0 mph 75% 0.00 in
10:54 59.1 °F 51.5 °F 30.11 in NW 2.0 mph 6.0 mph 76% 0.00 in
10:59 59.3 °F 51.7 °F 30.11 in NW 2.0 mph 4.0 mph 76% 0.00 in
11:04 59.0 °F 50.7 °F 30.11 in WNW 2.0 mph 7.0 mph 74% 0.00 in
11:09 59.4 °F 51.8 °F 30.12 in WNW 2.0 mph 7.0 mph 76% 0.00 in
11:14 59.4 °F 51.5 °F 30.12 in NW 1.0 mph 5.0 mph 75% 0.00 in
11:19 59.8 °F 51.9 °F 30.12 in WNW 5.0 mph 7.0 mph 75% 0.00 in
11:24 60.4 °F 51.7 °F 30.12 in NW 3.0 mph 7.0 mph 73% 0.00 in
11:29 60.2 °F 51.9 °F 30.12 in WNW 2.0 mph 6.0 mph 74% 0.00 in
11:34 60.1 °F 52.1 °F 30.12 in Calm   6.0 mph 75% 0.00 in
11:39 61.5 °F 53.9 °F 30.12 in WNW 4.0 mph 6.0 mph 76% 0.00 in
11:44 61.5 °F 52.4 °F 30.12 in North 6.0 mph 8.0 mph 72% 0.00 in
11:49 59.8 °F 50.4 °F 30.13 in NNW 3.0 mph 8.0 mph 71% 0.00 in
11:54 59.4 °F 51.5 °F 30.12 in NW 4.0 mph 8.0 mph 75% 0.00 in
11:59 59.8 °F 51.5 °F 30.12 in WNW 4.0 mph 8.0 mph 74% 0.00 in
12:04 59.7 °F 51.4 °F 30.13 in WNW 4.0 mph 8.0 mph 74% 0.00 in
12:09 59.4 °F 51.8 °F 30.13 in NW 3.0 mph 9.0 mph 76% 0.00 in
12:14 58.6 °F 51.1 °F 30.13 in NW 4.0 mph 12.0 mph 76% 0.00 in
12:19 58.6 °F 51.4 °F 30.13 in NW 8.0 mph 8.0 mph 77% 0.00 in
12:24 58.7 °F 51.5 °F 30.13 in North 2.0 mph 8.0 mph 77% 0.00 in
12:29 58.9 °F 51.3 °F 30.14 in NW 2.0 mph 8.0 mph 76% 0.00 in
12:34 59.4 °F 51.1 °F 30.14 in NW 2.0 mph 6.0 mph 74% 0.00 in
12:39 59.4 °F 51.8 °F 30.14 in NW 4.0 mph 6.0 mph 76% 0.00 in
12:44 60.0 °F 52.1 °F 30.14 in NNW 5.0 mph 7.0 mph 75% 0.00 in
12:49 59.7 °F 50.7 °F 30.14 in NW 2.0 mph 5.0 mph 72% 0.00 in
12:54 59.8 °F 51.5 °F 30.14 in West 3.0 mph 6.0 mph 74% 0.00 in
12:59 60.4 °F 51.7 °F 30.14 in WNW 4.0 mph 8.0 mph 73% 0.00 in
13:04 60.3 °F 51.6 °F 30.14 in NW 2.0 mph 7.0 mph 73% 0.00 in
13:09 61.4 °F 52.3 °F 30.14 in West 1.0 mph 8.0 mph 72% 0.00 in
13:14 62.1 °F 52.6 °F 30.14 in WNW 4.0 mph 5.0 mph 71% 0.00 in
13:19 61.6 °F 51.7 °F 30.14 in NW 4.0 mph 8.0 mph 70% 0.00 in
13:24 60.7 °F 52.4 °F 30.15 in NNE 2.0 mph 5.0 mph 74% 0.00 in
13:29 59.6 °F 51.7 °F 30.15 in NNE 3.0 mph 10.0 mph 75% 0.00 in
13:34 59.3 °F 52.1 °F 30.15 in NE 3.0 mph 10.0 mph 77% 0.00 in
13:39 59.3 °F 52.1 °F 30.15 in NE 3.0 mph 8.0 mph 77% 0.00 in
13:44 59.1 °F 51.5 °F 30.15 in NE 3.0 mph 8.0 mph 76% 0.00 in
13:49 59.6 °F 52.4 °F 30.15 in North 2.0 mph 7.0 mph 77% 0.00 in
13:54 61.7 °F 54.1 °F 30.15 in NE 1.0 mph 6.0 mph 76% 0.00 in
13:59 61.5 °F 53.1 °F 30.15 in Calm   5.0 mph 74% 0.00 in
14:04 61.0 °F 50.4 °F 30.15 in Calm   4.0 mph 68% 0.00 in
14:09 61.1 °F 50.5 °F 30.15 in WSW 3.0 mph 5.0 mph 68% 0.00 in
14:14 61.1 °F 51.2 °F 30.15 in SW 5.0 mph 7.0 mph 70% 0.00 in
14:19 61.0 °F 51.1 °F 30.15 in WSW 2.0 mph 9.0 mph 70% 0.00 in
14:24 62.1 °F 53.7 °F 30.15 in ESE 2.0 mph 8.0 mph 74% 0.00 in
14:29 61.7 °F 52.6 °F 30.15 in NE 3.0 mph 9.0 mph 72% 0.00 in
14:34 60.0 °F 51.3 °F 30.16 in NE 4.0 mph 9.0 mph 73% 0.00 in
14:39 59.7 °F 51.4 °F 30.16 in NE 3.0 mph 7.0 mph 74% 0.00 in
14:44 59.2 °F 50.9 °F 30.16 in ENE 2.0 mph 7.0 mph 74% 0.00 in
14:49 59.1 °F 51.9 °F 30.16 in East 2.0 mph 7.0 mph 77% 0.00 in
14:54 59.0 °F 52.5 °F 30.16 in ESE 1.0 mph 5.0 mph 79% 0.00 in
14:59 59.7 °F 52.1 °F 30.16 in SSW 3.0 mph 6.0 mph 76% 0.00 in
15:04 59.8 °F 51.9 °F 30.16 in SSE 3.0 mph 7.0 mph 75% 0.00 in
15:09 61.3 °F 53.7 °F 30.16 in South 3.0 mph 7.0 mph 76% 0.00 in
15:14 62.3 °F 52.8 °F 30.16 in South 4.0 mph 7.0 mph 71% 0.00 in
15:19 61.1 °F 51.6 °F 30.16 in South 1.0 mph 7.0 mph 71% 0.00 in
15:24 60.7 °F 52.0 °F 30.16 in Calm   3.0 mph 73% 0.00 in
15:29 60.5 °F 51.8 °F 30.16 in SW 4.0 mph 7.0 mph 73% 0.00 in
15:34 60.2 °F 51.9 °F 30.16 in SW 3.0 mph 7.0 mph 74% 0.00 in
15:39 59.8 °F 51.1 °F 30.16 in SSW 3.0 mph 7.0 mph 73% 0.00 in
15:44 59.7 °F 51.0 °F 30.16 in SSW 3.0 mph 7.0 mph 73% 0.00 in
15:49 60.1 °F 51.8 °F 30.16 in SSW 2.0 mph 5.0 mph 74% 0.00 in
15:54 60.1 °F 51.8 °F 30.17 in South 3.0 mph 5.0 mph 74% 0.00 in
15:59 60.4 °F 52.4 °F 30.16 in SSW 3.0 mph 5.0 mph 75% 0.00 in
16:04 60.7 °F 52.0 °F 30.16 in WSW 2.0 mph 5.0 mph 73% 0.00 in
16:09 60.9 °F 51.0 °F 30.16 in SW 3.0 mph 8.0 mph 70% 0.00 in
16:14 60.6 °F 51.1 °F 30.16 in WSW 4.0 mph 10.0 mph 71% 0.00 in
16:19 60.3 °F 50.5 °F 30.16 in WSW 4.0 mph 10.0 mph 70% 0.00 in
16:24 60.5 °F 51.0 °F 30.16 in SW 4.0 mph 10.0 mph 71% 0.00 in
16:29 60.3 °F 50.9 °F 30.16 in West 3.0 mph 8.0 mph 71% 0.00 in
16:34 60.2 °F 51.1 °F 30.17 in WNW 4.0 mph 7.0 mph 72% 0.00 in
16:39 59.9 °F 50.8 °F 30.17 in WNW 4.0 mph 7.0 mph 72% 0.00 in
16:44 59.5 °F 50.5 °F 30.17 in West 4.0 mph 8.0 mph 72% 0.00 in
16:49 59.3 °F 50.3 °F 30.17 in West 3.0 mph 8.0 mph 72% 0.00 in
16:54 59.4 °F 50.7 °F 30.17 in West 2.0 mph 6.0 mph 73% 0.00 in
16:59 59.5 °F 50.8 °F 30.17 in West 2.0 mph 4.0 mph 73% 0.00 in
17:04 59.9 °F 50.8 °F 30.17 in Calm   3.0 mph 72% 0.00 in
17:09 60.4 °F 51.3 °F 30.17 in West 1.0 mph 3.0 mph 72% 0.00 in
17:14 60.6 °F 51.1 °F 30.17 in West 1.0 mph 4.0 mph 71% 0.00 in
17:19 61.3 °F 51.8 °F 30.17 in West 2.0 mph 5.0 mph 71% 0.00 in
17:24 61.6 °F 52.1 °F 30.17 in West 2.0 mph 5.0 mph 71% 0.00 in
17:29 61.4 °F 51.1 °F 30.17 in Calm   4.0 mph 69% 0.00 in
17:34 61.1 °F 50.8 °F 30.17 in Calm     69% 0.00 in
17:39 60.8 °F 51.0 °F 30.18 in West 1.0 mph 2.0 mph 70% 0.00 in
17:44 60.7 °F 51.2 °F 30.18 in Calm   2.0 mph 71% 0.00 in
17:49 60.8 °F 52.1 °F 30.18 in Calm     73% 0.00 in
17:54 60.9 °F 51.4 °F 30.18 in Calm   1.0 mph 71% 0.00 in
17:59 61.3 °F 51.8 °F 30.18 in Calm   2.0 mph 71% 0.00 in
18:04 61.5 °F 51.2 °F 30.18 in Calm   3.0 mph 69% 0.00 in
18:09 61.3 °F 51.4 °F 30.18 in Calm   3.0 mph 70% 0.00 in
18:14 61.0 °F 51.1 °F 30.18 in North 1.0 mph 2.0 mph 70% 0.00 in
18:19 60.8 °F 50.6 °F 30.18 in Calm   4.0 mph 69% 0.00 in
18:24 60.6 °F 50.4 °F 30.18 in North 1.0 mph 4.0 mph 69% 0.00 in
18:29 60.5 °F 50.3 °F 30.18 in NNW 1.0 mph 4.0 mph 69% 0.00 in
18:34 60.6 °F 50.8 °F 30.18 in Calm   3.0 mph 70% 0.00 in
18:39 60.6 °F 50.4 °F 30.19 in NNW 3.0 mph 4.0 mph 69% 0.00 in
18:44 60.4 °F 50.6 °F 30.19 in Calm   4.0 mph 70% 0.00 in
18:49 60.1 °F 49.9 °F 30.19 in North 1.0 mph 4.0 mph 69% 0.00 in
18:54 59.8 °F 50.0 °F 30.19 in North 1.0 mph 4.0 mph 70% 0.00 in
18:59 59.5 °F 49.7 °F 30.19 in NNW 1.0 mph 6.0 mph 70% 0.00 in
19:04 59.4 °F 49.6 °F 30.19 in Calm   2.0 mph 70% 0.00 in
19:09 59.3 °F 49.9 °F 30.19 in Calm     71% 0.00 in
19:14 59.3 °F 50.3 °F 30.19 in North 1.0 mph 5.0 mph 72% 0.00 in
19:19 59.3 °F 49.9 °F 30.20 in Calm   3.0 mph 71% 0.00 in
19:24 59.1 °F 50.1 °F 30.20 in North 1.0 mph 3.0 mph 72% 0.00 in
19:29 58.9 °F 49.9 °F 30.20 in Calm   2.0 mph 72% 0.00 in
19:34 58.7 °F 50.1 °F 30.20 in Calm   2.0 mph 73% 0.00 in
19:39 58.3 °F 49.7 °F 30.20 in Calm     73% 0.00 in
19:44 57.9 °F 49.7 °F 30.21 in Calm     74% 0.00 in
19:49 57.5 °F 49.6 °F 30.21 in Calm     75% 0.00 in
19:54 57.3 °F 49.4 °F 30.21 in Calm     75% 0.00 in
19:59 57.1 °F 49.6 °F 30.22 in Calm     76% 0.00 in
20:04 57.2 °F 49.7 °F 30.22 in Calm     76% 0.00 in
20:09 57.3 °F 49.8 °F 30.22 in Calm     76% 0.00 in
20:14 57.3 °F 49.8 °F 30.22 in Calm     76% 0.00 in
20:19 56.9 °F 49.4 °F 30.22 in Calm     76% 0.00 in
20:24 56.6 °F 49.5 °F 30.22 in Calm     77% 0.00 in
20:29 56.5 °F 49.4 °F 30.22 in Calm     77% 0.00 in
20:34 56.3 °F 49.5 °F 30.22 in Calm     78% 0.00 in
20:39 55.9 °F 49.1 °F 30.23 in Calm     78% 0.00 in
20:44 55.8 °F 49.4 °F 30.23 in Calm     79% 0.00 in
20:49 55.6 °F 49.2 °F 30.23 in Calm     79% 0.00 in
20:54 55.3 °F 48.9 °F 30.23 in Calm     79% 0.00 in
20:59 55.1 °F 49.0 °F 30.24 in Calm     80% 0.00 in
21:04 55.0 °F 49.3 °F 30.24 in Calm     81% 0.00 in
21:09 55.1 °F 49.4 °F 30.24 in Calm     81% 0.00 in
21:14 55.3 °F 49.6 °F 30.24 in Calm     81% 0.00 in
21:19 55.4 °F 49.7 °F 30.24 in Calm     81% 0.00 in
21:24 55.4 °F 49.7 °F 30.24 in Calm     81% 0.00 in
21:29 55.6 °F 49.9 °F 30.25 in Calm     81% 0.00 in
21:34 55.7 °F 50.0 °F 30.25 in Calm     81% 0.00 in
21:39 55.8 °F 50.1 °F 30.25 in Calm     81% 0.00 in
21:44 56.0 °F 50.3 °F 30.25 in Calm     81% 0.00 in
21:49 56.0 °F 49.9 °F 30.25 in Calm     80% 0.00 in
21:54 56.0 °F 49.9 °F 30.25 in Calm     80% 0.00 in
21:59 56.0 °F 50.3 °F 30.25 in Calm     81% 0.00 in
22:04 56.1 °F 50.0 °F 30.25 in Calm   2.0 mph 80% 0.00 in
22:09 56.3 °F 50.2 °F 30.25 in Calm   5.0 mph 80% 0.00 in
22:14 56.4 °F 50.0 °F 30.25 in North 1.0 mph 7.0 mph 79% 0.00 in
22:19 56.5 °F 50.1 °F 30.25 in Calm   3.0 mph 79% 0.00 in
22:24 56.5 °F 49.7 °F 30.26 in NNW 1.0 mph 6.0 mph 78% 0.00 in
22:29 56.5 °F 49.7 °F 30.26 in Calm   4.0 mph 78% 0.00 in
22:34 56.4 °F 49.6 °F 30.26 in Calm   4.0 mph 78% 0.00 in
22:39 56.4 °F 50.0 °F 30.26 in NNW 1.0 mph 4.0 mph 79% 0.00 in
22:44 56.3 °F 49.9 °F 30.26 in Calm   3.0 mph 79% 0.00 in
22:49 56.2 °F 49.8 °F 30.27 in Calm   2.0 mph 79% 0.00 in
22:54 56.1 °F 49.7 °F 30.26 in Calm     79% 0.00 in
22:59 56.0 °F 49.6 °F 30.27 in North 2.0 mph 5.0 mph 79% 0.00 in
23:04 56.0 °F 49.6 °F 30.27 in NNW 1.0 mph 5.0 mph 79% 0.00 in
23:09 56.0 °F 49.6 °F 30.27 in NNW 1.0 mph 5.0 mph 79% 0.00 in
23:19 55.9 °F 49.5 °F 30.28 in Calm   5.0 mph 79% 0.00 in
23:24 55.8 °F 49.4 °F 30.28 in Calm   3.0 mph 79% 0.00 in
23:29 55.7 °F 49.6 °F 30.28 in Calm   3.0 mph 80% 0.00 in
23:34 55.5 °F 49.4 °F 30.28 in Calm   5.0 mph 80% 0.00 in
23:39 55.2 °F 48.8 °F 30.28 in NNW 1.0 mph 5.0 mph 79% 0.00 in
23:44 54.8 °F 48.7 °F 30.28 in Calm   3.0 mph 80% 0.00 in
23:49 54.5 °F 48.5 °F 30.28 in Calm     80% 0.00 in
23:54 54.1 °F 48.1 °F 30.28 in Calm   1.0 mph 80% 0.00 in
23:59 53.7 °F 48.0 °F 30.29 in Calm     81% 0.00 in
Buffalo, New York, USA
Compliments of Weather Underground - 2.5 mb